Time;durP1;ratioP1;P1;durP2;ratioP2;P2;SDS_P1;SDS_P2;PMS_P1;PMS_P2;Temp;Humidity;BMP_temperature;BMP_pressure;BME280_temperature;BME280_humidity;BME280_pressure;Samples;Min_cycle;Max_cycle;Signal;HPM_P1;HPM_P2
2022/08/02 00:00:08;;;;;;;5.68;3.65;;;17.20;99.90;;;;;;5110941;28;20492;-49
2022/08/02 00:02:35;;;;;;;4.47;3.13;;;17.10;99.90;;;;;;5103330;28;20081;-49
2022/08/02 00:05:02;;;;;;;7.30;3.00;;;16.90;99.90;;;;;;5112189;28;20043;-49
2022/08/02 00:07:29;;;;;;;4.28;2.92;;;16.80;99.90;;;;;;5115036;28;20054;-49
2022/08/02 00:09:55;;;;;;;4.43;2.95;;;16.70;99.90;;;;;;5113552;28;20043;-49
2022/08/02 00:12:22;;;;;;;7.28;3.40;;;16.70;99.90;;;;;;5114697;28;20039;-52
2022/08/02 00:14:50;;;;;;;8.27;3.00;;;16.70;99.90;;;;;;5115009;28;20048;-49
2022/08/02 00:17:17;;;;;;;6.20;3.17;;;16.70;99.90;;;;;;5114736;28;20098;-49
2022/08/02 00:19:44;;;;;;;4.75;2.90;;;16.80;99.90;;;;;;5113747;28;20043;-50
2022/08/02 00:22:10;;;;;;;6.55;3.20;;;16.80;99.90;;;;;;5113978;28;20039;-49
2022/08/02 00:24:38;;;;;;;5.80;2.90;;;16.80;99.90;;;;;;5114846;28;20085;-49
2022/08/02 00:27:07;;;;;;;8.63;3.00;;;16.90;99.90;;;;;;5111417;28;20047;-51
2022/08/02 00:29:36;;;;;;;6.88;3.30;;;16.90;99.90;;;;;;5110574;28;20036;-50
2022/08/02 00:32:19;;;;;;;5.38;3.33;;;17.00;99.90;;;;;;5094407;28;20040;-50
2022/08/02 00:34:46;;;;;;;5.88;3.17;;;17.00;99.90;;;;;;5096324;28;20059;-48
2022/08/02 00:37:13;;;;;;;8.13;3.25;;;17.00;99.90;;;;;;5114385;28;20484;-53
2022/08/02 00:39:43;;;;;;;5.15;3.33;;;17.00;99.90;;;;;;5114806;28;20040;-49
2022/08/02 00:42:13;;;;;;;7.28;3.80;;;17.10;99.90;;;;;;5114361;28;20043;-48
2022/08/02 00:44:40;;;;;;;6.85;4.18;;;17.20;99.90;;;;;;5113979;28;20051;-48
2022/08/02 00:47:07;;;;;;;7.20;3.85;;;17.20;99.90;;;;;;5106196;28;20055;-48
2022/08/02 00:49:34;;;;;;;9.65;4.78;;;17.20;99.90;;;;;;5114414;28;20492;-48
2022/08/02 00:52:01;;;;;;;5.50;2.78;;;17.20;99.90;;;;;;5113606;28;20549;-49
2022/08/02 00:54:28;;;;;;;4.88;2.90;;;17.20;99.90;;;;;;5142326;22;20054;-51
2022/08/02 00:56:55;;;;;;;7.22;2.70;;;17.20;99.90;;;;;;5136555;27;20046;-51
2022/08/02 00:59:22;;;;;;;5.30;3.35;;;17.20;99.90;;;;;;5134312;27;20043;-51
2022/08/02 01:01:50;;;;;;;7.40;3.33;;;17.20;99.90;;;;;;5134240;27;20050;-54
2022/08/02 01:04:25;;;;;;;5.10;2.83;;;17.20;99.90;;;;;;5125392;27;20042;-52
2022/08/02 01:07:04;;;;;;;4.75;3.40;;;17.20;99.90;;;;;;5134964;27;20050;-50
2022/08/02 01:09:44;;;;;;;5.88;2.85;;;17.10;99.90;;;;;;5134727;27;20047;-53
2022/08/02 01:12:11;;;;;;;8.88;2.88;;;17.10;99.90;;;;;;5133883;27;20046;-52
2022/08/02 01:14:42;;;;;;;7.53;3.00;;;17.10;99.90;;;;;;5134421;27;20114;-49
2022/08/02 01:17:25;;;;;;;5.50;3.00;;;17.10;99.90;;;;;;5134165;27;20051;-51
2022/08/02 01:20:00;;;;;;;4.85;3.20;;;17.10;99.90;;;;;;5134445;27;20035;-52
2022/08/02 01:22:45;;;;;;;3.03;2.47;;;17.10;99.90;;;;;;5126820;27;20403;-53
2022/08/02 01:25:50;;;;;;;3.72;2.80;;;17.20;99.90;;;;;;5129113;27;20043;-53
2022/08/02 01:28:37;;;;;;;8.30;3.20;;;17.20;99.90;;;;;;5134624;27;20058;-52
2022/08/02 01:31:32;;;;;;;8.70;3.07;;;17.20;99.90;;;;;;5132499;27;20560;-53
2022/08/02 01:34:04;;;;;;;8.50;3.10;;;17.20;99.90;;;;;;5119804;27;20062;-52
2022/08/02 01:36:37;;;;;;;6.45;3.22;;;17.20;99.90;;;;;;5130531;27;20047;-54
2022/08/02 01:39:04;;;;;;;5.55;2.88;;;17.30;99.90;;;;;;5130443;27;20035;-52
2022/08/02 01:41:33;;;;;;;6.28;3.00;;;17.30;99.90;;;;;;5128531;27;20035;-49
2022/08/02 01:44:01;;;;;;;4.45;3.70;;;17.30;99.90;;;;;;5133817;27;20054;-55
2022/08/02 01:46:30;;;;;;;7.60;3.92;;;17.30;99.90;;;;;;5133932;27;20065;-53
2022/08/02 01:49:00;;;;;;;5.07;4.07;;;17.20;99.90;;;;;;5133270;27;20043;-50
2022/08/02 01:54:16;;;;;;;6.57;3.67;;;17.10;99.90;;;;;;5133710;27;20042;-52
2022/08/02 01:56:44;;;;;;;6.68;3.95;;;17.10;99.90;;;;;;5132007;27;20043;-52
2022/08/02 01:59:15;;;;;;;8.90;4.18;;;17.10;99.90;;;;;;5133567;27;20046;-50
2022/08/02 02:01:44;;;;;;;6.55;3.55;;;17.00;99.90;;;;;;5133235;27;20097;-53
2022/08/02 02:04:14;;;;;;;6.82;3.90;;;17.10;99.90;;;;;;5133349;27;20035;-51
2022/08/02 02:06:43;;;;;;;8.05;3.55;;;17.00;99.90;;;;;;5131511;27;20121;-51
2022/08/02 02:09:13;;;;;;;5.43;3.20;;;17.00;99.90;;;;;;5133590;27;20059;-52
2022/08/02 02:11:42;;;;;;;6.10;3.03;;;17.00;99.90;;;;;;5133035;27;20054;-50
2022/08/02 02:14:31;;;;;;;5.13;3.78;;;16.90;99.90;;;;;;5133158;27;20461;-52
2022/08/02 02:16:59;;;;;;;3.63;2.75;;;16.90;99.90;;;;;;5126507;27;20039;-50
2022/08/02 02:19:27;;;;;;;5.15;2.90;;;16.90;99.90;;;;;;5133235;27;20035;-53
2022/08/02 02:21:55;;;;;;;4.15;2.40;;;16.90;99.90;;;;;;5132954;27;20054;-49
2022/08/02 02:24:23;;;;;;;3.15;2.15;;;16.80;99.90;;;;;;5130610;27;20038;-51
2022/08/02 02:26:50;;;;;;;2.92;2.05;;;16.80;99.90;;;;;;5132814;27;20065;-54
2022/08/02 02:29:20;;;;;;;3.75;1.90;;;16.80;99.90;;;;;;5132832;27;20464;-51
2022/08/02 02:31:53;;;;;;;2.40;1.42;;;16.80;99.90;;;;;;5132298;27;20472;-51
2022/08/02 02:34:34;;;;;;;3.08;1.40;;;16.80;99.90;;;;;;5132804;27;20043;-50
2022/08/02 02:37:04;;;;;;;1.35;1.20;;;16.70;99.90;;;;;;5132166;27;20031;-52
2022/08/02 02:39:33;;;;;;;1.55;1.23;;;16.70;99.90;;;;;;5132956;27;20035;-50
2022/08/02 02:42:03;;;;;;;1.13;0.90;;;16.70;99.90;;;;;;5128385;27;20043;-53
2022/08/02 02:44:30;;;;;;;2.67;1.15;;;16.70;99.90;;;;;;5132677;27;20039;-54
2022/08/02 02:46:59;;;;;;;1.95;1.08;;;16.70;99.90;;;;;;5132724;27;20047;-53
2022/08/02 02:49:30;;;;;;;1.50;0.80;;;16.60;99.90;;;;;;5127153;27;20556;-54
2022/08/02 02:51:58;;;;;;;1.48;0.90;;;16.60;99.90;;;;;;5131034;27;20054;-53
2022/08/02 02:54:24;;;;;;;;;;;16.70;99.90;;;;;;5132891;27;20043;-54
2022/08/02 02:57:01;;;;;;;1.90;0.80;;;16.60;99.90;;;;;;5132161;27;19927;-53
2022/08/02 02:59:29;;;;;;;1.42;0.75;;;16.60;99.90;;;;;;5132492;27;20039;-50
2022/08/02 03:01:56;;;;;;;;;;;16.60;99.90;;;;;;5132739;27;20100;-51
2022/08/02 03:04:26;;;;;;;;;;;16.60;99.90;;;;;;5132660;27;19947;-51
2022/08/02 03:07:13;;;;;;;1.02;0.70;;;16.60;99.90;;;;;;5117033;27;19972;-52
2022/08/02 03:09:40;;;;;;;1.30;0.90;;;16.60;99.90;;;;;;5132378;27;20047;-51
2022/08/02 03:12:09;;;;;;;1.33;0.60;;;16.50;99.90;;;;;;5132006;27;20491;-52
2022/08/02 03:14:41;;;;;;;1.67;0.80;;;16.50;99.90;;;;;;5131780;27;20031;-52
2022/08/02 03:17:08;;;;;;;2.10;0.80;;;16.50;99.90;;;;;;5124176;27;20057;-50
2022/08/02 03:19:35;;;;;;;3.15;1.08;;;16.50;99.90;;;;;;5132485;28;20046;-50
2022/08/02 03:22:02;;;;;;;1.38;0.60;;;16.40;99.90;;;;;;5131622;28;20031;-54
2022/08/02 03:24:29;;;;;;;2.33;0.90;;;16.40;99.90;;;;;;5131952;28;20483;-54
2022/08/02 03:26:55;;;;;;;1.00;0.70;;;16.40;99.90;;;;;;5132508;28;20035;-51
2022/08/02 03:29:22;;;;;;;1.63;1.00;;;16.40;99.90;;;;;;5132250;28;20096;-50
2022/08/02 03:31:49;;;;;;;3.20;0.95;;;16.40;99.90;;;;;;5129274;28;20047;-52
2022/08/02 03:34:16;;;;;;;1.42;0.63;;;16.40;99.90;;;;;;5130635;28;20040;-52
2022/08/02 03:36:48;;;;;;;1.95;0.80;;;16.40;99.90;;;;;;5130913;28;20035;-54
2022/08/02 03:39:15;;;;;;;0.60;0.60;;;16.40;99.90;;;;;;5131279;27;20499;-53
2022/08/02 03:41:42;;;;;;;;;;;16.40;99.90;;;;;;5129052;27;20039;-51
2022/08/02 03:44:11;;;;;;;1.50;0.77;;;16.40;99.90;;;;;;5135193;27;19931;-53
2022/08/02 03:46:39;;;;;;;3.35;1.00;;;16.40;99.90;;;;;;5114561;27;20058;-51
2022/08/02 03:49:09;;;;;;;1.23;0.75;;;16.40;99.90;;;;;;5127315;27;20396;-54
2022/08/02 03:51:37;;;;;;;3.03;1.08;;;16.40;99.90;;;;;;5131292;27;20039;-52
2022/08/02 03:54:04;;;;;;;1.50;0.80;;;16.40;99.90;;;;;;5120231;27;20046;-52
2022/08/02 03:56:31;;;;;;;1.70;0.80;;;16.50;99.90;;;;;;5125893;27;20039;-54
2022/08/02 03:59:08;;;;;;;1.48;0.98;;;16.40;99.90;;;;;;5135795;27;20043;-51
2022/08/02 04:01:35;;;;;;;2.72;0.80;;;16.50;99.90;;;;;;5129311;27;20039;-51
2022/08/02 04:04:03;;;;;;;1.75;1.02;;;16.50;99.90;;;;;;5130197;27;20051;-50
2022/08/02 04:06:29;;;;;;;1.85;0.90;;;16.50;99.90;;;;;;5131015;27;20046;-50
2022/08/02 04:08:57;;;;;;;2.63;0.82;;;16.50;99.90;;;;;;5132195;27;20043;-51
2022/08/02 04:11:29;;;;;;;2.65;0.80;;;16.50;99.90;;;;;;5128984;27;20445;-54
2022/08/02 04:13:58;;;;;;;1.33;0.90;;;16.50;99.90;;;;;;5129136;27;20187;-52
2022/08/02 04:16:33;;;;;;;1.67;0.80;;;16.60;99.90;;;;;;5117768;27;20040;-52
2022/08/02 04:19:02;;;;;;;2.55;1.00;;;16.60;99.90;;;;;;5133424;27;20674;-51
2022/08/02 04:21:35;;;;;;;1.42;0.77;;;16.60;99.90;;;;;;5130625;27;20045;-55
2022/08/02 04:24:26;;;;;;;1.13;0.85;;;16.60;99.90;;;;;;5122630;27;20031;-50
2022/08/02 04:26:58;;;;;;;1.67;0.93;;;16.60;99.90;;;;;;5116648;27;20071;-52
2022/08/02 04:29:46;;;;;;;0.70;0.70;;;16.70;99.90;;;;;;5119328;27;20503;-54
2022/08/02 04:32:14;;;;;;;5.50;1.10;;;16.70;99.90;;;;;;5114730;27;20051;-53
2022/08/02 04:34:42;;;;;;;1.48;0.95;;;16.70;99.90;;;;;;5116754;27;20514;-54
2022/08/02 04:37:29;;;;;;;1.20;0.85;;;16.80;99.90;;;;;;5114907;27;20035;-51
2022/08/02 04:39:55;;;;;;;2.58;1.20;;;16.90;99.90;;;;;;5115045;27;20035;-51
2022/08/02 04:42:24;;;;;;;1.42;0.82;;;16.90;99.90;;;;;;5096971;27;20044;-50
2022/08/02 04:44:52;;;;;;;0.90;0.80;;;17.00;99.90;;;;;;5116064;27;20046;-53
2022/08/02 04:47:20;;;;;;;5.00;0.85;;;17.00;99.90;;;;;;5114920;28;20503;-50
2022/08/02 04:50:07;;;;;;;2.65;1.05;;;17.10;99.90;;;;;;5106945;27;20544;-49
2022/08/02 04:52:34;;;;;;;1.17;0.90;;;17.00;99.90;;;;;;5134230;27;20031;-52
2022/08/02 04:55:01;;;;;;;1.63;0.80;;;17.10;99.90;;;;;;5134559;27;20046;-52
2022/08/02 05:00:19;;;;;;;2.20;1.00;;;17.10;99.90;;;;;;5127650;27;20539;-52
2022/08/02 05:02:47;;;;;;;2.88;1.10;;;17.20;99.90;;;;;;5134865;27;20039;-54
2022/08/02 05:05:14;;;;;;;1.67;0.88;;;17.30;99.90;;;;;;5134758;27;20059;-50
2022/08/02 05:07:41;;;;;;;;;;;17.40;99.90;;;;;;5131890;27;20047;-54
2022/08/02 05:10:08;;;;;;;2.85;0.65;;;17.50;99.90;;;;;;5134442;27;20379;-51
2022/08/02 05:12:37;;;;;;;1.88;0.88;;;17.60;99.90;;;;;;5134655;27;20047;-52
2022/08/02 05:15:04;;;;;;;1.40;1.02;;;17.70;99.90;;;;;;5130172;27;20042;-52
2022/08/02 05:17:31;;;;;;;;;;;17.70;99.90;;;;;;5134772;27;20039;-50
2022/08/02 05:19:57;;;;;;;1.83;1.10;;;17.80;99.90;;;;;;5133843;27;19919;-50
2022/08/02 05:22:24;;;;;;;1.58;0.98;;;17.80;99.90;;;;;;5134625;27;20042;-52
2022/08/02 05:24:51;;;;;;;2.20;0.90;;;17.90;99.90;;;;;;5133657;27;20106;-50
2022/08/02 05:27:18;;;;;;;1.67;1.15;;;17.90;99.90;;;;;;5134010;27;20042;-54
2022/08/02 05:29:50;;;;;;;2.78;1.05;;;17.90;99.90;;;;;;5134030;27;20062;-49
2022/08/02 05:32:22;;;;;;;2.83;1.05;;;18.00;99.90;;;;;;5114504;28;20051;-54
2022/08/02 05:34:51;;;;;;;1.20;1.10;;;18.10;99.90;;;;;;5123879;27;20047;-52
2022/08/02 05:37:18;;;;;;;1.92;1.35;;;18.20;99.90;;;;;;5134055;27;20043;-49
2022/08/02 05:39:45;;;;;;;2.00;1.17;;;18.20;99.90;;;;;;5133939;27;20039;-54
2022/08/02 05:42:22;;;;;;;4.55;0.93;;;18.20;99.90;;;;;;5133427;27;20031;-51
2022/08/02 05:44:49;;;;;;;1.98;1.00;;;18.10;99.90;;;;;;5126778;27;20035;-51
2022/08/02 05:47:16;;;;;;;1.48;1.13;;;18.20;99.90;;;;;;5133967;27;20516;-50
2022/08/02 05:49:43;;;;;;;1.23;0.90;;;18.10;99.90;;;;;;5133842;27;20039;-53
2022/08/02 05:52:18;;;;;;;1.85;0.90;;;18.20;99.90;;;;;;5129151;27;20043;-50
2022/08/02 05:55:06;;;;;;;0.98;0.98;;;18.20;99.90;;;;;;5133189;27;20042;-49
2022/08/02 05:57:51;;;;;;;1.38;0.93;;;18.20;99.90;;;;;;5133825;27;20396;-52
2022/08/02 06:00:19;;;;;;;2.47;1.20;;;18.30;99.90;;;;;;5132635;27;20425;-51
2022/08/02 06:03:15;;;;;;;2.47;0.95;;;18.40;99.90;;;;;;5132265;27;20043;-51
2022/08/02 06:05:50;;;;;;;2.58;0.93;;;18.50;99.90;;;;;;5134031;27;20046;-51
2022/08/02 06:08:20;;;;;;;1.20;1.00;;;18.60;99.90;;;;;;5133574;27;20491;-53
2022/08/02 06:10:49;;;;;;;2.13;1.00;;;18.70;99.90;;;;;;5114577;27;20054;-54
2022/08/02 06:13:16;;;;;;;5.72;1.00;;;18.70;99.90;;;;;;5133601;27;20376;-53
2022/08/02 06:15:43;;;;;;;4.30;1.20;;;18.60;99.90;;;;;;5133239;27;20491;-52
2022/08/02 06:18:20;;;;;;;4.47;1.00;;;18.40;99.90;;;;;;5132555;27;20466;-51
2022/08/02 06:21:00;;;;;;;3.08;0.90;;;18.30;99.90;;;;;;5132712;27;20047;-51
2022/08/02 06:23:47;;;;;;;2.13;1.10;;;18.40;99.90;;;;;;5114746;27;20075;-51
2022/08/02 06:26:26;;;;;;;1.85;1.05;;;18.50;99.90;;;;;;5132423;27;20081;-51
2022/08/02 06:28:54;;;;;;;3.83;1.10;;;18.60;99.90;;;;;;5133183;27;20410;-51
2022/08/02 06:31:22;;;;;;;1.55;0.85;;;18.50;99.90;;;;;;5132763;27;20437;-53
2022/08/02 06:33:48;;;;;;;3.45;1.40;;;18.60;99.90;;;;;;5133143;27;20043;-51
2022/08/02 06:36:48;;;;;;;2.72;1.27;;;18.70;99.90;;;;;;5132307;27;20058;-53
2022/08/02 06:39:30;;;;;;;7.88;3.78;;;18.80;99.90;;;;;;5122252;27;20498;-50
2022/08/02 06:42:00;;;;;;;3.40;1.50;;;18.90;99.90;;;;;;5132590;27;20395;-54
2022/08/02 06:44:37;;;;;;;1.98;1.20;;;19.00;99.90;;;;;;5114523;27;20043;-50
2022/08/02 06:47:16;;;;;;;1.70;1.17;;;19.10;99.90;;;;;;5132153;27;20035;-50
2022/08/02 06:49:43;;;;;;;3.55;1.30;;;19.10;99.90;;;;;;5132371;27;20047;-52
2022/08/02 06:52:27;;;;;;;5.45;1.10;;;19.20;99.90;;;;;;5132805;27;20050;-52
2022/08/02 06:54:58;;;;;;;2.50;1.35;;;19.40;99.90;;;;;;5129315;22;20608;-53
2022/08/02 06:57:27;;;;;;;2.28;1.13;;;19.60;99.90;;;;;;5116446;27;20392;-48
2022/08/02 06:59:54;;;;;;;2.00;1.33;;;19.70;99.90;;;;;;5131732;27;20054;-50
2022/08/02 07:02:21;;;;;;;3.13;1.20;;;19.70;99.90;;;;;;5120200;27;20037;-50
2022/08/02 07:04:48;;;;;;;;;;;19.90;99.90;;;;;;5104314;27;20484;-51
2022/08/02 07:07:15;;;;;;;2.33;1.00;;;20.00;99.90;;;;;;5092090;28;20107;-50
2022/08/02 07:09:41;;;;;;;2.90;1.30;;;20.10;99.90;;;;;;5099579;28;20054;-52
2022/08/02 07:12:31;;;;;;;1.88;0.90;;;20.10;99.90;;;;;;5107826;28;20035;-51
2022/08/02 07:15:04;;;;;;;1.77;1.15;;;20.10;99.90;;;;;;5111420;28;20052;-51
2022/08/02 07:17:32;;;;;;;1.13;1.02;;;20.20;99.90;;;;;;5111876;28;20040;-52
2022/08/02 07:19:59;;;;;;;2.67;1.20;;;20.30;99.90;;;;;;5107841;28;20096;-49
2022/08/02 07:22:27;;;;;;;2.53;1.02;;;20.40;99.90;;;;;;5106198;28;20518;-53
2022/08/02 07:24:56;;;;;;;1.08;0.95;;;20.40;99.90;;;;;;5111453;28;20100;-51
2022/08/02 07:27:24;;;;;;;1.65;0.93;;;20.50;99.90;;;;;;5111020;28;20032;-51
2022/08/02 07:29:51;;;;;;;2.42;1.10;;;20.60;99.90;;;;;;5103252;28;20044;-52
2022/08/02 07:32:20;;;;;;;1.50;1.13;;;20.70;99.90;;;;;;5111847;28;20051;-51
2022/08/02 07:34:48;;;;;;;1.77;1.00;;;20.70;99.90;;;;;;5111544;28;20055;-51
2022/08/02 07:37:20;;;;;;;3.20;1.30;;;20.80;99.90;;;;;;5105886;28;20508;-52
2022/08/02 07:40:09;;;;;;;2.95;1.20;;;20.90;99.90;;;;;;5090651;28;20044;-48
2022/08/02 07:42:44;;;;;;;3.50;1.00;;;20.90;99.90;;;;;;5091366;28;20491;-48
2022/08/02 07:45:12;;;;;;;6.53;2.25;;;21.00;99.90;;;;;;5098524;28;20043;-50
2022/08/02 07:47:40;;;;;;;2.83;1.27;;;21.10;99.90;;;;;;5103107;28;20043;-52
2022/08/02 07:50:10;;;;;;;3.17;1.10;;;21.30;99.90;;;;;;5111050;28;20054;-49
2022/08/02 07:52:38;;;;;;;1.52;0.90;;;21.20;99.90;;;;;;5111777;28;20336;-51
2022/08/02 07:55:06;;;;;;;1.25;1.10;;;21.30;99.90;;;;;;5105845;28;20028;-50
2022/08/02 07:57:33;;;;;;;1.45;1.10;;;21.30;99.90;;;;;;5106873;28;20043;-51
2022/08/02 08:00:00;;;;;;;1.25;0.90;;;21.40;99.90;;;;;;5110984;28;20039;-53
2022/08/02 08:02:37;;;;;;;2.47;1.08;;;21.60;99.90;;;;;;5111796;28;20089;-51
2022/08/02 08:05:05;;;;;;;0.80;0.80;;;21.70;99.90;;;;;;5107247;28;20050;-51
2022/08/02 08:07:33;;;;;;;4.90;1.00;;;21.80;99.90;;;;;;5106572;28;20047;-51
2022/08/02 08:10:00;;;;;;;1.23;0.90;;;21.90;99.90;;;;;;5111009;28;20050;-48
2022/08/02 08:12:27;;;;;;;3.65;1.23;;;22.00;99.90;;;;;;5110950;28;20074;-51
2022/08/02 08:14:54;;;;;;;2.40;0.95;;;22.10;99.90;;;;;;5102553;28;20055;-48
2022/08/02 08:17:21;;;;;;;1.88;1.30;;;22.20;99.90;;;;;;5111329;28;20051;-51
2022/08/02 08:19:48;;;;;;;1.40;1.27;;;22.20;99.90;;;;;;5111169;28;20039;-48
2022/08/02 08:22:18;;;;;;;1.95;1.30;;;22.20;99.90;;;;;;5086745;28;20070;-48
2022/08/02 08:24:46;;;;;;;1.50;1.13;;;22.40;99.90;;;;;;5108345;28;20048;-50
2022/08/02 08:27:14;;;;;;;1.60;1.02;;;22.50;99.90;;;;;;5114161;28;20528;-51
2022/08/02 08:29:42;;;;;;;2.20;1.30;;;22.50;99.90;;;;;;5114768;28;20048;-50
2022/08/02 08:32:09;;;;;;;2.55;1.42;;;22.50;99.90;;;;;;5105184;28;20044;-50
2022/08/02 08:34:47;;;;;;;2.15;1.30;;;22.60;99.90;;;;;;5111667;28;20081;-49
2022/08/02 08:37:14;;;;;;;1.88;1.35;;;22.60;99.90;;;;;;5114651;28;20504;-50
2022/08/02 08:39:43;;;;;;;1.10;1.00;;;22.80;99.90;;;;;;5113968;28;20043;-52
2022/08/02 08:42:23;;;;;;;4.57;1.20;;;23.00;99.90;;;;;;5106746;28;20147;-50
2022/08/02 08:44:50;;;;;;;3.17;1.20;;;23.20;99.90;;;;;;5114439;28;20043;-52
2022/08/02 08:47:18;;;;;;;3.17;1.15;;;23.20;99.90;;;;;;5114577;28;20039;-52
2022/08/02 08:49:50;;;;;;;2.55;1.15;;;23.30;99.90;;;;;;5113736;28;20036;-51
2022/08/02 08:52:22;;;;;;;2.83;0.95;;;23.40;99.90;;;;;;5105912;28;20492;-52
2022/08/02 08:54:50;;;;;;;3.13;1.35;;;23.40;99.90;;;;;;5114250;28;20573;-51
2022/08/02 08:57:19;;;;;;;1.58;1.10;;;23.40;99.90;;;;;;5114174;28;20050;-50
2022/08/02 08:59:46;;;;;;;1.70;1.17;;;23.50;99.90;;;;;;5105845;28;20043;-50
2022/08/02 09:02:12;;;;;;;;;;;23.40;99.90;;;;;;5106893;28;20059;-50
2022/08/02 09:04:48;;;;;;;1.58;1.30;;;22.90;99.90;;;;;;5114480;28;20292;-51
2022/08/02 09:07:21;;;;;;;1.65;1.20;;;22.80;99.90;;;;;;5108128;28;20093;-51
2022/08/02 09:09:48;;;;;;;3.45;1.33;;;22.90;99.90;;;;;;5111464;28;20051;-54
2022/08/02 09:12:17;;;;;;;1.63;1.13;;;23.10;99.90;;;;;;5113852;28;20035;-51
2022/08/02 09:14:45;;;;;;;1.85;1.13;;;23.40;99.90;;;;;;5113926;28;20047;-50
2022/08/02 09:17:16;;;;;;;4.72;1.20;;;23.70;99.90;;;;;;5108330;28;20046;-50
2022/08/02 09:19:43;;;;;;;3.10;1.10;;;23.70;99.90;;;;;;5110269;28;20047;-50
2022/08/02 09:22:13;;;;;;;4.20;1.27;;;23.80;99.90;;;;;;5113480;28;20063;-53
2022/08/02 09:24:47;;;;;;;1.17;0.95;;;23.80;99.90;;;;;;5113244;28;20040;-49
2022/08/02 09:27:17;;;;;;;1.58;1.20;;;23.80;99.90;;;;;;5105378;28;20039;-51
2022/08/02 09:29:52;;;;;;;5.53;1.13;;;23.90;99.90;;;;;;5113511;28;20114;-52
2022/08/02 09:32:47;;;;;;;5.47;1.10;;;24.00;99.90;;;;;;5113698;28;20071;-52
2022/08/02 09:35:30;;;;;;;1.95;1.17;;;24.10;99.90;;;;;;5112808;28;20108;-48
2022/08/02 09:38:17;;;;;;;3.28;1.35;;;24.20;99.90;;;;;;5106596;28;20048;-53
2022/08/02 09:40:44;;;;;;;6.80;1.40;;;24.30;99.90;;;;;;5112976;28;20051;-50
2022/08/02 09:43:11;;;;;;;2.22;1.30;;;24.40;99.90;;;;;;5090292;28;20065;-50
2022/08/02 09:45:38;;;;;;;3.72;1.20;;;24.60;99.90;;;;;;5091277;28;20047;-50
2022/08/02 09:48:08;;;;;;;0.80;0.80;;;24.70;99.90;;;;;;5113364;28;20507;-50
2022/08/02 09:50:39;;;;;;;2.55;0.90;;;24.70;99.90;;;;;;5112953;28;20496;-52
2022/08/02 09:53:14;;;;;;;1.80;1.10;;;24.90;99.90;;;;;;5109037;28;20040;-50
2022/08/02 09:55:41;;;;;;;1.58;1.13;;;24.60;99.90;;;;;;5109661;28;20043;-49
2022/08/02 09:58:19;;;;;;;1.85;1.10;;;24.60;99.90;;;;;;5113098;28;20051;-51
2022/08/02 10:00:56;;;;;;;2.92;1.23;;;24.50;99.90;;;;;;5111986;28;20062;-50
2022/08/02 10:03:24;;;;;;;2.33;1.10;;;24.50;99.90;;;;;;5104574;28;20050;-48
2022/08/02 10:06:01;;;;;;;5.95;1.15;;;24.70;99.90;;;;;;5113042;28;20545;-51
2022/08/02 10:08:30;;;;;;;3.55;0.90;;;24.90;99.90;;;;;;5112221;28;20050;-51
2022/08/02 10:11:00;;;;;;;2.03;0.90;;;24.90;99.90;;;;;;5103927;28;20123;-51
2022/08/02 10:13:29;;;;;;;2.08;1.13;;;24.90;99.90;;;;;;5112844;28;20042;-49
2022/08/02 10:15:56;;;;;;;5.22;0.90;;;24.80;99.90;;;;;;5112591;28;20404;-48
2022/08/02 10:18:23;;;;;;;;;;;24.90;99.90;;;;;;5106605;28;20044;-49
2022/08/02 10:21:18;;;;;;;1.13;0.88;;;25.00;99.90;;;;;;5112397;28;19930;-48
2022/08/02 10:23:48;;;;;;;2.67;0.90;;;25.10;99.90;;;;;;5112708;28;20484;-50
2022/08/02 10:26:17;;;;;;;2.53;0.80;;;25.10;99.90;;;;;;5111725;28;20396;-51
2022/08/02 10:28:49;;;;;;;1.10;1.00;;;25.20;99.90;;;;;;5103969;28;20043;-48
2022/08/02 10:31:22;;;;;;;1.27;1.10;;;25.40;99.90;;;;;;5112039;28;20043;-48
2022/08/02 10:33:51;;;;;;;1.48;0.85;;;25.70;99.90;;;;;;5112466;28;20114;-51
2022/08/02 10:36:20;;;;;;;3.20;1.00;;;25.80;99.90;;;;;;5106353;28;20058;-48
2022/08/02 10:38:46;;;;;;;2.58;1.00;;;26.00;99.90;;;;;;5109175;28;20500;-48
2022/08/02 10:41:13;;;;;;;;;;;25.90;99.90;;;;;;5112403;28;20404;-54
2022/08/02 10:43:42;;;;;;;2.20;1.00;;;25.90;99.90;;;;;;5111845;28;19991;-50
2022/08/02 10:46:33;;;;;;;1.17;0.90;;;26.00;99.90;;;;;;5103839;28;20027;-49
2022/08/02 10:49:06;;;;;;;2.28;0.88;;;26.10;99.90;;;;;;5111674;28;20496;-50
2022/08/02 10:52:04;;;;;;;1.38;0.93;;;26.10;99.90;;;;;;5107915;28;20043;-49
2022/08/02 10:54:35;;;;;;;1.45;0.80;;;26.10;99.90;;;;;;5107349;28;20408;-50
2022/08/02 10:57:03;;;;;;;0.70;0.70;;;26.20;99.90;;;;;;5112100;28;20504;-50
2022/08/02 10:59:32;;;;;;;0.85;0.85;;;26.40;99.90;;;;;;5111926;28;20085;-51
2022/08/02 11:02:04;;;;;;;3.25;0.80;;;26.60;99.90;;;;;;5107939;28;20488;-49
2022/08/02 11:04:42;;;;;;;1.85;1.23;;;26.60;99.90;;;;;;5107044;28;20040;-50
2022/08/02 11:07:17;;;;;;;2.15;0.98;;;26.70;99.90;;;;;;5111791;28;20039;-49
2022/08/02 11:09:46;;;;;;;0.77;0.73;;;26.90;99.90;;;;;;5110747;28;20054;-49
2022/08/02 11:12:15;;;;;;;0.98;0.80;;;27.10;99.90;;;;;;5104117;28;20070;-52
2022/08/02 11:14:45;;;;;;;2.00;0.98;;;27.30;99.90;;;;;;5111782;28;20054;-49
2022/08/02 11:17:16;;;;;;;0.82;0.80;;;27.50;99.90;;;;;;5111857;28;20055;-50
2022/08/02 11:20:11;;;;;;;0.70;0.70;;;27.80;99.90;;;;;;5110356;28;20058;-51
2022/08/02 11:22:38;;;;;;;2.40;0.85;;;27.90;99.90;;;;;;5107748;28;20539;-51
2022/08/02 11:25:26;;;;;;;0.85;0.75;;;28.00;99.90;;;;;;5111998;28;20059;-50
2022/08/02 11:28:09;;;;;;;4.18;1.00;;;28.40;99.90;;;;;;5107610;28;20067;-52
2022/08/02 11:30:36;;;;;;;3.80;1.30;;;28.60;98.40;;;;;;5107619;28;20044;-51
2022/08/02 11:33:03;;;;;;;1.02;0.70;;;28.40;96.40;;;;;;5111552;28;20051;-49
2022/08/02 11:35:32;;;;;;;1.23;0.70;;;28.00;97.30;;;;;;5110954;28;20044;-51
2022/08/02 11:38:13;;;;;;;1.48;0.73;;;27.50;99.70;;;;;;5102880;28;20085;-51
2022/08/02 11:40:42;;;;;;;0.90;0.88;;;26.60;99.90;;;;;;5111232;28;20131;-49
2022/08/02 11:43:23;;;;;;;1.98;1.00;;;25.80;99.90;;;;;;5111730;28;20040;-50
2022/08/02 11:45:52;;;;;;;2.65;0.80;;;25.20;99.90;;;;;;5109185;28;20043;-49
2022/08/02 11:48:39;;;;;;;1.58;0.90;;;24.70;99.90;;;;;;5105229;28;20044;-49
2022/08/02 11:51:09;;;;;;;0.90;0.90;;;24.40;99.90;;;;;;5111521;28;20050;-50
2022/08/02 11:53:50;;;;;;;3.38;0.80;;;24.30;99.90;;;;;;5111417;28;20126;-49
2022/08/02 11:56:29;;;;;;;1.48;0.93;;;24.30;99.90;;;;;;5087714;28;20032;-50
2022/08/02 11:59:07;;;;;;;0.80;0.80;;;24.50;99.90;;;;;;5110743;28;20035;-50
2022/08/02 12:01:36;;;;;;;0.90;0.80;;;24.60;99.90;;;;;;5112883;28;20431;-50
2022/08/02 12:04:17;;;;;;;0.80;0.80;;;24.60;99.90;;;;;;5109964;28;20119;-49
2022/08/02 12:06:53;;;;;;;2.25;0.90;;;24.70;99.90;;;;;;5107243;28;20361;-49
2022/08/02 12:09:21;;;;;;;0.82;0.82;;;24.80;99.90;;;;;;5115348;28;20130;-51
2022/08/02 12:11:52;;;;;;;6.78;1.25;;;24.80;99.90;;;;;;5114833;28;20457;-49
2022/08/02 12:14:19;;;;;;;1.65;0.77;;;24.70;99.90;;;;;;5108031;28;20093;-49
2022/08/02 12:19:33;;;;;;;2.00;1.10;;;24.40;99.90;;;;;;5115158;28;20046;-50
2022/08/02 12:22:23;;;;;;;1.42;0.85;;;24.40;99.90;;;;;;5114025;28;20051;-49
2022/08/02 12:24:56;;;;;;;1.10;0.90;;;24.90;99.90;;;;;;5106112;28;20047;-50
2022/08/02 12:27:31;;;;;;;2.85;1.10;;;25.50;99.90;;;;;;5114984;28;20035;-50
2022/08/02 12:30:01;;;;;;;5.43;1.30;;;26.20;99.90;;;;;;5114834;28;20480;-50
2022/08/02 12:32:28;;;;;;;1.15;0.70;;;26.70;99.90;;;;;;5114106;28;20507;-52
2022/08/02 12:35:10;;;;;;;1.38;0.90;;;27.00;99.90;;;;;;5106223;28;20047;-50
2022/08/02 12:37:41;;;;;;;4.07;1.00;;;27.30;99.90;;;;;;5114913;28;20399;-50
2022/08/02 12:40:21;;;;;;;0.85;0.85;;;27.40;99.90;;;;;;5113827;28;20377;-50
2022/08/02 12:43:03;;;;;;;2.90;1.10;;;27.50;99.90;;;;;;5106121;28;20070;-50
2022/08/02 12:45:52;;;;;;;2.47;0.82;;;27.60;99.90;;;;;;5114686;28;20035;-51
2022/08/02 12:48:33;;;;;;;5.50;1.20;;;27.60;99.90;;;;;;5110454;28;20549;-51
2022/08/02 12:51:24;;;;;;;1.00;0.90;;;27.70;99.90;;;;;;5105060;28;20048;-49
2022/08/02 12:54:18;;;;;;;1.00;0.90;;;27.80;99.90;;;;;;5131028;22;20089;-48
2022/08/02 12:57:12;;;;;;;4.45;1.40;;;28.10;99.90;;;;;;5121870;27;20396;-53
2022/08/02 12:59:41;;;;;;;1.52;0.90;;;28.30;99.90;;;;;;5117138;27;20058;-48
2022/08/02 13:02:10;;;;;;;2.25;1.00;;;28.60;99.30;;;;;;5093474;28;20377;-50
2022/08/02 13:04:39;;;;;;;1.05;0.85;;;29.00;99.90;;;;;;5092828;28;20068;-50
2022/08/02 13:07:07;;;;;;;1.80;1.10;;;29.20;99.90;;;;;;5094080;28;20086;-49
2022/08/02 13:09:44;;;;;;;1.08;0.90;;;29.40;99.20;;;;;;5093630;28;20044;-49
2022/08/02 13:12:11;;;;;;;1.92;1.08;;;29.20;98.00;;;;;;5093021;28;20052;-51
2022/08/02 13:14:39;;;;;;;2.60;0.77;;;28.30;97.90;;;;;;5092337;28;20048;-49
2022/08/02 13:17:08;;;;;;;3.50;0.90;;;28.20;99.10;;;;;;5093916;28;20109;-49
2022/08/02 13:19:36;;;;;;;1.20;0.95;;;28.30;98.80;;;;;;5093639;28;20386;-51
2022/08/02 13:22:03;;;;;;;2.85;0.90;;;28.40;99.60;;;;;;5093109;28;20044;-50